Time;durP1;ratioP1;P1;durP2;ratioP2;P2;SDS_P1;SDS_P2;PMS_P1;PMS_P2;Temp;Humidity;BMP_temperature;BMP_pressure;BME280_temperature;BME280_humidity;BME280_pressure;Samples;Min_cycle;Max_cycle;Signal;HPM_P1;HPM_P2
2023/09/01 04:30:07;;;;;;;0.10;0.10;;;19.10;89.20;;;;;;6050369;23;20104;31
2023/09/01 04:32:33;;;;;;;0.10;0.10;;;19.10;89.20;;;;;;4919221;29;20087;-76
2023/09/01 04:34:58;;;;;;;0.10;0.10;;;19.10;89.20;;;;;;4927460;29;20028;-75
2023/09/01 04:37:25;;;;;;;0.10;0.05;;;19.10;89.30;;;;;;4922217;29;20436;-76
2023/09/01 04:39:51;;;;;;;0.10;0.10;;;19.10;89.30;;;;;;4922227;29;20028;-76
2023/09/01 04:42:16;;;;;;;0.10;0.10;;;19.10;89.20;;;;;;4921319;29;20495;-76
2023/09/01 04:44:42;;;;;;;0.10;0.10;;;19.10;89.40;;;;;;4922474;29;20475;-75
2023/09/01 04:47:08;;;;;;;0.08;0.08;;;19.10;89.30;;;;;;4920933;29;20047;-75
2023/09/01 04:49:33;;;;;;;0.10;0.10;;;19.00;89.40;;;;;;4922043;29;20510;-75
2023/09/01 04:51:59;;;;;;;0.00;0.00;;;19.10;89.30;;;;;;4921980;29;20028;-75
2023/09/01 04:54:24;;;;;;;0.00;0.00;;;19.10;89.20;;;;;;4921160;29;20028;-74
2023/09/01 04:56:50;;;;;;;0.00;0.00;;;19.00;89.10;;;;;;4922003;29;20395;-75
2023/09/01 04:59:16;;;;;;;0.05;0.05;;;19.00;89.20;;;;;;4935731;29;20032;-74
2023/09/01 05:01:42;;;;;;;0.03;0.03;;;18.90;89.00;;;;;;4920103;29;20135;-74
2023/09/01 05:04:10;;;;;;;0.00;0.00;;;18.90;89.00;;;;;;4921094;29;20061;-75
2023/09/01 05:06:36;;;;;;;0.00;0.00;;;18.90;88.90;;;;;;4911963;29;20029;-74
2023/09/01 05:09:03;;;;;;;0.10;0.10;;;18.90;88.70;;;;;;4917180;29;20025;-74
2023/09/01 05:11:29;;;;;;;0.00;0.00;;;18.80;88.60;;;;;;4919430;29;20024;-74
2023/09/01 05:13:55;;;;;;;0.00;0.00;;;18.80;88.70;;;;;;4921608;29;20411;-74
2023/09/01 05:16:21;;;;;;;0.03;0.03;;;18.80;88.60;;;;;;4921679;29;20028;-77
2023/09/01 05:18:46;;;;;;;0.00;0.00;;;18.80;88.60;;;;;;4920009;29;20057;-74
2023/09/01 05:21:12;;;;;;;0.05;0.05;;;18.80;88.40;;;;;;4920848;29;20491;-75
2023/09/01 05:23:38;;;;;;;0.10;0.10;;;18.90;88.40;;;;;;4921597;29;20035;-74
2023/09/01 05:26:04;;;;;;;0.00;0.00;;;18.80;88.30;;;;;;4904207;29;20029;-74
2023/09/01 05:28:29;;;;;;;0.00;0.00;;;18.80;88.40;;;;;;4902600;29;20036;-74
2023/09/01 05:30:57;;;;;;;0.00;0.00;;;18.90;88.30;;;;;;4908568;29;20060;-74
2023/09/01 05:33:22;;;;;;;0.00;0.00;;;18.80;88.10;;;;;;4932537;29;20020;-75
2023/09/01 05:35:48;;;;;;;0.08;0.08;;;18.80;88.00;;;;;;4923513;29;20027;-76
2023/09/01 05:38:14;;;;;;;0.08;0.08;;;18.80;88.10;;;;;;4940112;29;20188;-76
2023/09/01 05:40:40;;;;;;;0.00;0.00;;;18.80;88.00;;;;;;4939121;29;20028;-76
2023/09/01 05:43:05;;;;;;;0.00;0.00;;;18.80;88.00;;;;;;4938026;29;20533;-76
2023/09/01 05:45:31;;;;;;;0.00;0.00;;;18.80;88.10;;;;;;4929537;29;20032;-76
2023/09/01 05:47:57;;;;;;;0.00;0.00;;;18.80;88.20;;;;;;4929018;29;20027;-76
2023/09/01 05:50:22;;;;;;;0.00;0.00;;;18.80;88.30;;;;;;4930155;29;20028;-76
2023/09/01 05:52:48;;;;;;;0.00;0.00;;;18.80;88.30;;;;;;4930360;29;20024;-76
2023/09/01 05:55:14;;;;;;;0.10;0.10;;;18.90;88.20;;;;;;4932201;29;20672;-76
2023/09/01 05:57:41;;;;;;;0.10;0.10;;;18.90;88.10;;;;;;4930215;29;20051;-76
2023/09/01 06:00:07;;;;;;;0.00;0.00;;;18.90;88.20;;;;;;4930273;29;20032;-76
2023/09/01 06:02:32;;;;;;;0.10;0.10;;;18.80;88.20;;;;;;4934110;29;20032;-76
2023/09/01 06:04:58;;;;;;;0.10;0.10;;;18.80;88.10;;;;;;4934880;29;20094;-75
2023/09/01 06:07:23;;;;;;;0.10;0.10;;;18.90;88.20;;;;;;4916277;29;20031;-76
2023/09/01 06:09:49;;;;;;;0.17;0.10;;;18.90;88.20;;;;;;4931433;29;20035;-76
2023/09/01 06:12:15;;;;;;;0.10;0.10;;;19.00;88.10;;;;;;4932828;29;20027;-76
2023/09/01 06:14:41;;;;;;;0.10;0.10;;;18.90;88.30;;;;;;4931267;29;20660;-76
2023/09/01 06:17:06;;;;;;;0.10;0.10;;;18.90;88.20;;;;;;4930179;29;20027;-76
2023/09/01 06:19:32;;;;;;;0.10;0.10;;;18.90;88.20;;;;;;4933710;29;20035;-76
2023/09/01 06:21:57;;;;;;;0.10;0.10;;;19.00;88.30;;;;;;4928792;29;20414;-76
2023/09/01 06:24:23;;;;;;;0.00;0.00;;;19.00;88.30;;;;;;4933541;29;20506;-76
2023/09/01 06:26:49;;;;;;;0.00;0.00;;;19.00;88.30;;;;;;4931051;29;20027;-76
2023/09/01 06:29:14;;;;;;;0.10;0.10;;;19.00;88.20;;;;;;4928566;29;20376;-76
2023/09/01 06:31:40;;;;;;;0.10;0.10;;;19.00;88.40;;;;;;4926713;29;20040;-76
2023/09/01 06:34:06;;;;;;;0.00;0.00;;;19.10;88.20;;;;;;4930985;29;20059;-76
2023/09/01 06:36:31;;;;;;;0.00;0.00;;;19.20;88.10;;;;;;4933892;29;20020;-76
2023/09/01 06:38:57;;;;;;;0.00;0.00;;;19.20;87.90;;;;;;4930097;29;20043;-75
2023/09/01 06:41:22;;;;;;;0.10;0.10;;;19.30;87.90;;;;;;4931445;29;20035;-76
2023/09/01 06:43:48;;;;;;;0.10;0.10;;;19.20;88.00;;;;;;4935384;29;20032;-76
2023/09/01 06:46:14;;;;;;;0.00;0.00;;;19.20;87.60;;;;;;4936213;29;20115;-76
2023/09/01 06:48:42;;;;;;;0.10;0.10;;;19.20;87.80;;;;;;4938180;29;20039;-77
2023/09/01 06:51:08;;;;;;;0.10;0.10;;;19.20;87.80;;;;;;4937691;29;20027;-76
2023/09/01 06:53:34;;;;;;;0.10;0.10;;;19.20;87.80;;;;;;4938381;29;20038;-75
2023/09/01 06:56:00;;;;;;;0.03;0.03;;;19.30;87.60;;;;;;4936162;29;20484;-74
2023/09/01 06:58:26;;;;;;;0.10;0.10;;;19.30;87.60;;;;;;4931591;29;20247;-75
2023/09/01 07:00:51;;;;;;;0.10;0.10;;;19.30;87.50;;;;;;4937018;29;20039;-75
2023/09/01 07:03:20;;;;;;;0.10;0.10;;;19.30;87.70;;;;;;4936553;29;20055;-76
2023/09/01 07:05:53;;;;;;;0.00;0.00;;;19.40;87.70;;;;;;4936384;29;20483;-75
2023/09/01 07:08:19;;;;;;;0.00;0.00;;;19.30;87.70;;;;;;4937003;29;20533;-75
2023/09/01 07:10:44;;;;;;;0.00;0.00;;;19.40;87.70;;;;;;4938023;29;20744;-75
2023/09/01 07:13:10;;;;;;;0.00;0.00;;;19.40;87.70;;;;;;4938261;29;20479;-75
2023/09/01 07:15:36;;;;;;;0.10;0.10;;;19.40;87.60;;;;;;4937528;29;20023;-75
2023/09/01 07:18:02;;;;;;;0.00;0.00;;;19.40;87.30;;;;;;4938128;29;20032;-75
2023/09/01 07:20:27;;;;;;;0.00;0.00;;;19.40;87.50;;;;;;4937118;29;20031;-87
2023/09/01 07:22:53;;;;;;;0.00;0.00;;;19.40;87.40;;;;;;4922058;29;20175;-76
2023/09/01 07:25:19;;;;;;;0.10;0.05;;;19.40;87.30;;;;;;4937560;29;20028;-76
2023/09/01 07:27:45;;;;;;;0.00;0.00;;;19.30;87.60;;;;;;4936614;29;20087;-77
2023/09/01 07:30:13;;;;;;;0.00;0.00;;;19.30;87.60;;;;;;4938349;29;20031;-78
2023/09/01 07:32:40;;;;;;;0.00;0.00;;;19.40;87.60;;;;;;4935975;29;20036;-76
2023/09/01 07:35:06;;;;;;;0.00;0.00;;;19.60;87.40;;;;;;4935984;29;20510;-77
2023/09/01 07:37:32;;;;;;;0.00;0.00;;;19.70;87.20;;;;;;4936545;29;20032;-81
2023/09/01 07:39:57;;;;;;;0.00;0.00;;;19.80;87.00;;;;;;4937100;29;20043;-79
2023/09/01 07:42:23;;;;;;;0.08;0.08;;;19.70;87.00;;;;;;4936882;29;20106;-78
2023/09/01 07:44:49;;;;;;;0.00;0.00;;;19.70;87.10;;;;;;4935357;29;20485;-76
2023/09/01 07:47:14;;;;;;;0.10;0.10;;;19.80;87.30;;;;;;4936822;29;20328;-77
2023/09/01 07:49:40;;;;;;;0.10;0.10;;;19.80;87.20;;;;;;4932911;29;20031;-77
2023/09/01 07:52:06;;;;;;;0.08;0.08;;;19.90;87.00;;;;;;4932222;29;20031;-78
2023/09/01 07:54:32;;;;;;;0.05;0.05;;;20.00;86.90;;;;;;4930904;29;20391;-77
2023/09/01 07:56:58;;;;;;;0.08;0.08;;;20.20;86.70;;;;;;4932218;29;20042;-77
2023/09/01 07:59:23;;;;;;;0.10;0.10;;;20.30;86.30;;;;;;4933611;29;20036;-77
2023/09/01 08:01:49;;;;;;;0.10;0.10;;;20.50;86.00;;;;;;4934157;29;20054;-77
2023/09/01 08:04:15;;;;;;;0.10;0.10;;;21.00;85.60;;;;;;4939399;29;20126;-77
2023/09/01 08:06:40;;;;;;;0.00;0.00;;;21.50;84.60;;;;;;4937470;29;20055;-76
2023/09/01 08:09:06;;;;;;;0.00;0.00;;;21.70;83.50;;;;;;4932795;29;20067;-77
2023/09/01 08:11:31;;;;;;;0.10;0.10;;;21.60;83.10;;;;;;4926345;29;20494;-77
2023/09/01 08:13:57;;;;;;;0.10;0.10;;;21.60;83.20;;;;;;4935320;29;20038;-77
2023/09/01 08:16:23;;;;;;;0.00;0.00;;;21.80;83.30;;;;;;4935243;29;20042;-77
2023/09/01 08:18:48;;;;;;;0.00;0.00;;;21.60;83.30;;;;;;4907637;29;20107;-76
2023/09/01 08:21:14;;;;;;;0.05;0.05;;;21.30;83.00;;;;;;4933803;29;20574;-78
2023/09/01 08:23:40;;;;;;;0.10;0.10;;;21.20;83.40;;;;;;4935519;29;20131;-77
2023/09/01 08:26:06;;;;;;;0.00;0.00;;;21.30;83.30;;;;;;4934237;29;20036;-77
2023/09/01 08:28:32;;;;;;;0.00;0.00;;;21.20;83.30;;;;;;4941580;29;20031;-77
2023/09/01 08:31:02;;;;;;;0.00;0.00;;;21.20;83.60;;;;;;4935225;29;20510;-77
2023/09/01 08:33:28;;;;;;;0.00;0.00;;;21.10;83.70;;;;;;4910506;29;20549;-77
2023/09/01 08:35:54;;;;;;;0.08;0.08;;;21.10;84.20;;;;;;4918515;29;20031;-77
2023/09/01 08:38:20;;;;;;;0.00;0.00;;;21.20;84.00;;;;;;4937655;29;20063;-77
2023/09/01 08:40:48;;;;;;;0.00;0.00;;;21.20;83.70;;;;;;4929578;29;20513;-76
2023/09/01 08:43:15;;;;;;;0.00;0.00;;;21.10;83.90;;;;;;4937545;29;20015;-76
2023/09/01 08:45:41;;;;;;;0.00;0.00;;;21.00;83.60;;;;;;4944225;29;20027;-76
2023/09/01 08:48:07;;;;;;;0.00;0.00;;;20.90;83.90;;;;;;4935988;29;20030;-77
2023/09/01 08:50:34;;;;;;;0.00;0.00;;;20.90;84.00;;;;;;4918601;29;20027;-76
2023/09/01 08:53:01;;;;;;;0.08;0.08;;;20.90;84.10;;;;;;4919887;29;20173;-76
2023/09/01 08:55:27;;;;;;;0.00;0.00;;;20.90;83.80;;;;;;4924266;29;20034;-76
2023/09/01 08:57:53;;;;;;;0.00;0.00;;;20.90;83.80;;;;;;4940229;29;20027;-77
2023/09/01 09:00:18;;;;;;;0.00;0.00;;;21.00;83.80;;;;;;4915133;29;20482;-76
2023/09/01 09:02:45;;;;;;;0.00;0.00;;;21.10;83.80;;;;;;4928773;29;20784;-76
2023/09/01 09:05:13;;;;;;;0.00;0.00;;;21.30;83.70;;;;;;4928080;29;20027;-77
2023/09/01 09:07:39;;;;;;;0.00;0.00;;;21.40;83.10;;;;;;4944479;29;20057;-76
2023/09/01 09:10:06;;;;;;;0.00;0.00;;;21.60;82.80;;;;;;4940557;29;20036;-76
2023/09/01 09:12:41;;;;;;;0.00;0.00;;;21.80;82.30;;;;;;4927748;29;20030;-76
2023/09/01 09:15:08;;;;;;;0.00;0.00;;;21.90;81.60;;;;;;4938147;29;20020;-76
2023/09/01 09:17:44;;;;;;;0.00;0.00;;;22.10;81.70;;;;;;4942463;29;20023;-76
2023/09/01 09:20:11;;;;;;;0.05;0.05;;;22.00;80.50;;;;;;4922009;29;20545;-76
2023/09/01 09:22:59;;;;;;;0.00;0.00;;;22.20;80.50;;;;;;4935935;29;20064;-76
2023/09/01 09:25:31;;;;;;;0.00;0.00;;;22.20;80.30;;;;;;4933729;29;20051;-77
2023/09/01 09:27:58;;;;;;;0.00;0.00;;;22.20;80.00;;;;;;4927280;29;20039;-77
2023/09/01 09:30:28;;;;;;;0.00;0.00;;;22.50;80.20;;;;;;4936729;29;20047;-77
2023/09/01 09:33:07;;;;;;;0.00;0.00;;;22.70;79.40;;;;;;4934950;29;20040;-77
2023/09/01 09:35:34;;;;;;;0.00;0.00;;;22.70;79.40;;;;;;4919962;29;20400;-76
2023/09/01 09:38:00;;;;;;;0.00;0.00;;;22.80;79.20;;;;;;4931582;29;20062;-76
2023/09/01 09:40:27;;;;;;;0.00;0.00;;;23.00;78.60;;;;;;4931540;29;20055;-77
2023/09/01 09:42:58;;;;;;;0.00;0.00;;;23.20;78.30;;;;;;4936921;29;20493;-76
2023/09/01 09:45:26;;;;;;;0.00;0.00;;;23.30;78.20;;;;;;4935596;29;20414;-76
2023/09/01 09:47:53;;;;;;;0.00;0.00;;;23.20;77.70;;;;;;4935402;29;20032;-75
2023/09/01 09:50:20;;;;;;;0.00;0.00;;;23.10;77.20;;;;;;4933154;29;20141;-76
2023/09/01 09:52:49;;;;;;;0.10;0.10;;;23.10;77.30;;;;;;4933375;29;20024;-77
2023/09/01 09:55:25;;;;;;;0.05;0.05;;;23.10;77.40;;;;;;4919435;29;20031;-77
2023/09/01 09:57:53;;;;;;;0.00;0.00;;;23.00;77.20;;;;;;4923039;29;20043;-76
2023/09/01 10:00:20;;;;;;;0.10;0.10;;;22.90;77.60;;;;;;4935284;29;20032;-76
2023/09/01 10:02:53;;;;;;;0.10;0.10;;;23.10;77.00;;;;;;4939986;29;20036;-83
2023/09/01 10:05:24;;;;;;;0.10;0.10;;;23.30;77.50;;;;;;4936167;29;20477;-79
2023/09/01 10:07:51;;;;;;;0.10;0.10;;;23.30;76.30;;;;;;4919613;29;20038;-79
2023/09/01 10:10:17;;;;;;;0.00;0.00;;;23.50;76.90;;;;;;4936355;29;20032;-81
2023/09/01 10:12:43;;;;;;;0.10;0.10;;;23.60;76.10;;;;;;4918542;29;20031;-79
2023/09/01 10:15:15;;;;;;;0.00;0.00;;;23.50;75.60;;;;;;4943621;29;20028;-77
2023/09/01 10:17:42;;;;;;;0.00;0.00;;;23.50;76.40;;;;;;4941876;29;20059;-80
2023/09/01 10:20:09;;;;;;;0.08;0.08;;;23.40;75.80;;;;;;4922435;29;20036;-78
2023/09/01 10:22:38;;;;;;;0.00;0.00;;;23.30;75.90;;;;;;4938337;29;20046;-78
2023/09/01 10:25:15;;;;;;;0.10;0.10;;;23.40;76.00;;;;;;4921908;29;20487;-77
2023/09/01 10:28:08;;;;;;;0.00;0.00;;;23.40;75.60;;;;;;4938100;29;20059;-78
2023/09/01 10:30:42;;;;;;;0.00;0.00;;;23.40;75.20;;;;;;4936896;29;20052;-76
2023/09/01 10:33:16;;;;;;;0.00;0.00;;;23.30;75.40;;;;;;4937757;29;20062;-75
2023/09/01 10:35:43;;;;;;;0.00;0.00;;;23.10;75.70;;;;;;4931835;29;20754;-80
2023/09/01 10:38:11;;;;;;;0.00;0.00;;;22.90;76.00;;;;;;4933708;29;20032;-82
2023/09/01 10:40:40;;;;;;;0.10;0.10;;;22.90;76.60;;;;;;4923607;29;20023;-89
2023/09/01 10:43:06;;;;;;;0.00;0.00;;;23.10;77.10;;;;;;4937734;29;20040;-84
2023/09/01 10:45:32;;;;;;;0.00;0.00;;;23.10;76.30;;;;;;4938417;29;20016;-78
2023/09/01 10:47:58;;;;;;;0.10;0.10;;;23.10;75.60;;;;;;4927461;29;20040;-79
2023/09/01 10:50:23;;;;;;;0.00;0.00;;;23.00;75.90;;;;;;4932582;29;20040;-78
2023/09/01 10:53:31;;;;;;;0.10;0.10;;;23.10;76.40;;;;;;4915782;29;20032;-77
2023/09/01 10:56:17;;;;;;;0.00;0.00;;;23.30;75.80;;;;;;4932073;29;20083;-78
2023/09/01 10:58:50;;;;;;;0.00;0.00;;;23.50;75.30;;;;;;4933893;29;20035;-77
2023/09/01 11:01:25;;;;;;;0.00;0.00;;;23.50;74.60;;;;;;4932714;29;20034;-77
2023/09/01 11:03:51;;;;;;;0.03;0.03;;;23.40;75.10;;;;;;4932144;29;20036;-77
2023/09/01 11:06:17;;;;;;;0.00;0.00;;;23.50;75.30;;;;;;4933020;29;20027;-77
2023/09/01 11:08:59;;;;;;;0.00;0.00;;;23.90;74.60;;;;;;4934701;29;20039;-77
2023/09/01 11:11:26;;;;;;;0.00;0.00;;;23.90;73.90;;;;;;4934955;29;20016;-78
2023/09/01 11:13:58;;;;;;;0.00;0.00;;;23.80;73.60;;;;;;4934670;29;20123;-79
2023/09/01 11:16:24;;;;;;;0.00;0.00;;;23.80;73.70;;;;;;4934467;29;20529;-81
2023/09/01 11:19:00;;;;;;;0.00;0.00;;;23.60;73.40;;;;;;4936258;29;20524;-77
2023/09/01 11:21:26;;;;;;;0.00;0.00;;;23.50;74.10;;;;;;4933816;29;20035;-77
2023/09/01 11:24:03;;;;;;;0.00;0.00;;;23.60;74.30;;;;;;4935868;29;20031;-78
2023/09/01 11:26:29;;;;;;;0.00;0.00;;;23.80;74.30;;;;;;4931331;29;20514;-78
2023/09/01 11:28:55;;;;;;;0.10;0.10;;;24.00;73.40;;;;;;4935834;29;20032;-78
2023/09/01 11:31:21;;;;;;;0.03;0.03;;;24.00;72.70;;;;;;4935152;29;20133;-78
2023/09/01 11:33:52;;;;;;;0.00;0.00;;;24.10;72.90;;;;;;4935381;29;20738;-78
2023/09/01 11:36:18;;;;;;;0.00;0.00;;;24.20;73.20;;;;;;4931973;29;20066;-78
2023/09/01 11:38:44;;;;;;;0.00;0.00;;;24.20;71.80;;;;;;4936087;29;20490;-78
2023/09/01 11:41:19;;;;;;;0.00;0.00;;;24.30;72.10;;;;;;4932789;29;20552;-78
2023/09/01 11:43:46;;;;;;;0.00;0.00;;;24.20;71.90;;;;;;4934964;29;20031;-78
2023/09/01 11:46:12;;;;;;;0.00;0.00;;;24.10;71.50;;;;;;4935987;29;20035;-78
2023/09/01 11:48:39;;;;;;;0.00;0.00;;;23.90;72.20;;;;;;4932858;29;20123;-78
2023/09/01 11:51:04;;;;;;;0.00;0.00;;;23.80;72.50;;;;;;4934098;29;20024;-78
2023/09/01 11:53:34;;;;;;;0.00;0.00;;;23.60;72.80;;;;;;4934195;29;20015;-78
2023/09/01 11:56:01;;;;;;;0.00;0.00;;;23.50;72.50;;;;;;4935062;29;20036;-77
2023/09/01 11:58:33;;;;;;;0.00;0.00;;;23.50;72.90;;;;;;4933831;29;20122;-78
2023/09/01 12:01:13;;;;;;;0.10;0.10;;;23.80;73.30;;;;;;4935543;29;20039;-78
2023/09/01 12:03:53;;;;;;;0.10;0.10;;;24.00;72.40;;;;;;4934661;29;20283;-78
2023/09/01 12:06:21;;;;;;;0.10;0.10;;;24.50;71.10;;;;;;4934282;29;20051;-78
2023/09/01 12:08:47;;;;;;;0.00;0.00;;;24.70;69.50;;;;;;4935734;29;20043;-78
2023/09/01 12:11:14;;;;;;;0.00;0.00;;;24.80;69.90;;;;;;4935528;29;20800;-78
2023/09/01 12:13:40;;;;;;;0.00;0.00;;;24.80;70.00;;;;;;4938933;29;20062;-77
2023/09/01 12:16:06;;;;;;;0.10;0.10;;;25.00;69.90;;;;;;4923394;29;20176;-78
2023/09/01 12:18:41;;;;;;;0.00;0.00;;;24.90;70.10;;;;;;4939623;29;20055;-77
2023/09/01 12:21:10;;;;;;;0.00;0.00;;;24.90;70.40;;;;;;4937123;29;20122;-78
2023/09/01 12:23:38;;;;;;;0.00;0.00;;;24.70;69.80;;;;;;4940918;29;20782;-78
2023/09/01 12:26:05;;;;;;;0.00;0.00;;;24.60;70.30;;;;;;4939563;29;20016;-77
2023/09/01 12:28:33;;;;;;;0.00;0.00;;;24.60;70.50;;;;;;4944219;29;20063;-78
2023/09/01 12:31:00;;;;;;;0.00;0.00;;;24.80;70.30;;;;;;4937231;29;20048;-78
2023/09/01 12:33:26;;;;;;;0.00;0.00;;;24.80;70.10;;;;;;4939124;29;20039;-78
2023/09/01 12:35:52;;;;;;;0.00;0.00;;;24.80;70.00;;;;;;4940249;29;20016;-78
2023/09/01 12:38:18;;;;;;;0.00;0.00;;;24.70;70.10;;;;;;4946506;29;20039;-78
2023/09/01 12:40:44;;;;;;;0.00;0.00;;;24.60;70.40;;;;;;4939393;29;20083;-77
2023/09/01 12:43:10;;;;;;;0.00;0.00;;;24.40;70.50;;;;;;4939813;29;20434;-78
2023/09/01 12:45:36;;;;;;;0.00;0.00;;;24.30;71.30;;;;;;4939544;29;20501;-78
2023/09/01 12:48:03;;;;;;;0.00;0.00;;;24.20;71.60;;;;;;4939795;29;20031;-78
2023/09/01 12:50:29;;;;;;;0.00;0.00;;;24.10;72.00;;;;;;4939727;29;20122;-78
2023/09/01 12:52:56;;;;;;;0.00;0.00;;;24.00;72.20;;;;;;4946825;29;20039;-78
2023/09/01 12:55:25;;;;;;;0.00;0.00;;;24.10;72.50;;;;;;4943751;29;20032;-77
2023/09/01 12:57:51;;;;;;;0.00;0.00;;;24.00;72.40;;;;;;4927972;29;20024;-77
2023/09/01 13:00:18;;;;;;;0.00;0.00;;;24.00;72.30;;;;;;4940516;29;20023;-78
2023/09/01 13:02:44;;;;;;;0.00;0.00;;;24.00;72.80;;;;;;4940229;29;20023;-78
2023/09/01 13:05:11;;;;;;;0.00;0.00;;;23.90;72.90;;;;;;4938631;29;20024;-78
2023/09/01 13:07:37;;;;;;;0.00;0.00;;;23.80;73.10;;;;;;4940398;29;20032;-78
2023/09/01 13:10:03;;;;;;;0.00;0.00;;;23.70;73.60;;;;;;4939219;29;20501;-78
2023/09/01 13:12:29;;;;;;;0.00;0.00;;;23.70;73.40;;;;;;4940628;29;20032;-78
2023/09/01 13:14:58;;;;;;;0.00;0.00;;;23.60;73.40;;;;;;4940169;29;20149;-78
2023/09/01 13:17:25;;;;;;;0.00;0.00;;;23.50;73.50;;;;;;4939111;29;20030;-78
2023/09/01 13:19:51;;;;;;;0.00;0.00;;;23.30;74.30;;;;;;4940134;29;20027;-79
2023/09/01 13:22:17;;;;;;;0.00;0.00;;;23.10;75.30;;;;;;4938077;29;20138;-77
2023/09/01 13:24:43;;;;;;;0.00;0.00;;;22.90;76.20;;;;;;4939929;29;20019;-77
2023/09/01 13:27:08;;;;;;;0.00;0.00;;;22.80;78.60;;;;;;4939676;29;20031;-77
2023/09/01 13:29:34;;;;;;;0.00;0.00;;;22.80;78.50;;;;;;4939663;29;20025;-77
2023/09/01 13:32:00;;;;;;;0.05;0.00;;;22.70;78.40;;;;;;4938714;29;20055;-78
2023/09/01 13:34:25;;;;;;;0.10;0.10;;;22.70;79.80;;;;;;4938871;29;20020;-78
2023/09/01 13:36:51;;;;;;;0.00;0.00;;;22.30;87.80;;;;;;4939942;29;20079;-79
2023/09/01 13:39:16;;;;;;;0.00;0.00;;;21.90;89.60;;;;;;4938376;29;20506;-79
2023/09/01 13:41:42;;;;;;;0.00;0.00;;;21.80;90.40;;;;;;4939073;29;20118;-79
2023/09/01 13:44:08;;;;;;;0.00;0.00;;;21.70;90.60;;;;;;4938824;29;20092;-79
2023/09/01 13:46:33;;;;;;;0.08;0.08;;;21.60;89.70;;;;;;4939911;29;20039;-79
2023/09/01 13:48:59;;;;;;;0.10;0.10;;;21.80;90.80;;;;;;4939317;29;20055;-79
2023/09/01 13:51:27;;;;;;;0.08;0.08;;;21.80;90.60;;;;;;4938650;29;20550;-79
2023/09/01 13:53:56;;;;;;;0.10;0.10;;;22.10;90.80;;;;;;4938403;29;20363;-78
2023/09/01 13:56:22;;;;;;;0.00;0.00;;;22.30;90.20;;;;;;4938616;29;20107;-79
2023/09/01 13:58:48;;;;;;;0.10;0.10;;;22.30;89.30;;;;;;4937900;29;20039;-79
2023/09/01 14:01:14;;;;;;;0.00;0.00;;;22.50;89.10;;;;;;4939414;29;20032;-79
2023/09/01 14:03:41;;;;;;;0.00;0.00;;;22.60;89.10;;;;;;4939093;29;20023;-77
2023/09/01 14:06:08;;;;;;;0.00;0.00;;;22.60;87.40;;;;;;4937063;29;20031;-79
2023/09/01 14:08:34;;;;;;;0.00;0.00;;;22.40;86.00;;;;;;4926413;29;20027;-79
2023/09/01 14:11:00;;;;;;;0.00;0.00;;;22.30;86.80;;;;;;4939170;29;20035;-79
2023/09/01 14:13:26;;;;;;;0.00;0.00;;;22.30;86.60;;;;;;4938944;29;20031;-79
2023/09/01 14:15:55;;;;;;;0.10;0.10;;;22.30;87.80;;;;;;4941411;28;20071;-79
2023/09/01 14:18:22;;;;;;;0.00;0.00;;;22.30;85.60;;;;;;4920345;29;20032;-79
2023/09/01 14:20:52;;;;;;;0.10;0.10;;;22.30;85.50;;;;;;4923198;29;20031;-79
2023/09/01 14:23:25;;;;;;;0.10;0.10;;;22.50;86.10;;;;;;4937919;29;20027;-79
2023/09/01 14:25:52;;;;;;;0.10;0.10;;;22.80;83.50;;;;;;4938724;29;20035;-79
2023/09/01 14:28:19;;;;;;;0.00;0.00;;;23.00;82.70;;;;;;4939279;29;20038;-79
2023/09/01 14:30:45;;;;;;;0.00;0.00;;;23.10;81.60;;;;;;4937741;29;20043;-82
2023/09/01 14:33:11;;;;;;;0.00;0.00;;;23.30;83.00;;;;;;4930499;29;21381;-77
2023/09/01 14:35:37;;;;;;;0.00;0.00;;;23.20;81.70;;;;;;4935021;29;20039;-77
2023/09/01 14:38:05;;;;;;;0.00;0.00;;;23.00;81.50;;;;;;4937042;29;20027;-77
2023/09/01 14:40:31;;;;;;;0.00;0.00;;;22.80;80.50;;;;;;4935183;29;20515;-77
2023/09/01 14:42:57;;;;;;;0.00;0.00;;;22.70;81.50;;;;;;4936059;29;20075;-77
2023/09/01 14:45:23;;;;;;;0.00;0.00;;;22.70;81.90;;;;;;4938643;29;20035;-76
2023/09/01 14:47:49;;;;;;;0.00;0.00;;;22.70;81.70;;;;;;4936452;29;20106;-77
2023/09/01 14:50:20;;;;;;;0.00;0.00;;;22.70;83.20;;;;;;4935386;29;20118;-77
2023/09/01 14:52:45;;;;;;;0.00;0.00;;;22.80;83.40;;;;;;4937093;29;20024;-76
2023/09/01 14:55:11;;;;;;;0.00;0.00;;;22.80;83.30;;;;;;4930917;29;20163;-78
2023/09/01 14:57:38;;;;;;;0.00;0.00;;;22.70;83.10;;;;;;4936604;29;20627;-77
2023/09/01 15:00:07;;;;;;;0.00;0.00;;;22.70;83.70;;;;;;4933507;29;20051;-77
2023/09/01 15:02:33;;;;;;;0.00;0.00;;;22.60;84.10;;;;;;4918688;29;20027;-77
2023/09/01 15:04:59;;;;;;;0.00;0.00;;;22.60;84.00;;;;;;4933141;29;20032;-77
2023/09/01 15:07:25;;;;;;;0.00;0.00;;;22.60;84.10;;;;;;4919072;29;20032;-77
2023/09/01 15:09:51;;;;;;;0.00;0.00;;;22.70;84.10;;;;;;4934214;29;20548;-77
2023/09/01 15:12:17;;;;;;;0.00;0.00;;;22.70;82.90;;;;;;4936540;29;20075;-77
2023/09/01 15:14:43;;;;;;;0.00;0.00;;;22.80;83.60;;;;;;4933625;29;20024;-77
2023/09/01 15:17:08;;;;;;;0.00;0.00;;;22.80;83.30;;;;;;4933467;29;20063;-77
2023/09/01 15:19:34;;;;;;;0.00;0.00;;;22.90;83.80;;;;;;4936161;29;20087;-77
2023/09/01 15:22:00;;;;;;;0.10;0.10;;;23.00;83.70;;;;;;4934849;29;20518;-77
2023/09/01 15:24:25;;;;;;;0.00;0.00;;;23.10;83.50;;;;;;4935479;29;20499;-77
2023/09/01 15:26:51;;;;;;;0.00;0.00;;;23.20;83.10;;;;;;4934716;29;20063;-77
2023/09/01 15:29:18;;;;;;;0.10;0.10;;;23.30;80.90;;;;;;4932995;29;20067;-77
2023/09/01 15:31:43;;;;;;;0.10;0.10;;;23.30;82.20;;;;;;4934190;29;20411;-77
2023/09/01 15:34:09;;;;;;;0.00;0.00;;;23.50;81.70;;;;;;4935452;29;20031;-77
2023/09/01 15:36:35;;;;;;;0.00;0.00;;;23.60;81.60;;;;;;4934991;29;20019;-77
2023/09/01 15:39:00;;;;;;;0.00;0.00;;;23.80;80.60;;;;;;4932113;29;20039;-77
2023/09/01 15:41:27;;;;;;;0.00;0.00;;;23.80;80.30;;;;;;4934635;29;20166;-77
2023/09/01 15:43:52;;;;;;;0.00;0.00;;;23.90;79.60;;;;;;4934049;29;20118;-77
2023/09/01 15:46:18;;;;;;;0.00;0.00;;;24.20;78.50;;;;;;4934535;29;20152;-77
2023/09/01 15:48:44;;;;;;;0.03;0.03;;;23.90;76.50;;;;;;4934144;29;20119;-77
2023/09/01 15:51:09;;;;;;;0.00;0.00;;;23.80;77.40;;;;;;4933434;29;20030;-77
2023/09/01 15:53:35;;;;;;;0.00;0.00;;;23.40;76.00;;;;;;4932936;29;20032;-77
2023/09/01 15:56:02;;;;;;;0.00;0.00;;;23.30;76.90;;;;;;4934544;29;20039;-77
2023/09/01 15:58:28;;;;;;;0.00;0.00;;;23.20;78.00;;;;;;4935897;29;20497;-77
2023/09/01 16:00:55;;;;;;;0.00;0.00;;;23.10;76.70;;;;;;4934702;29;20028;-77
2023/09/01 16:03:21;;;;;;;0.00;0.00;;;23.20;77.00;;;;;;4933680;29;20032;-77
2023/09/01 16:05:47;;;;;;;0.00;0.00;;;23.20;77.50;;;;;;4934282;29;20064;-77
2023/09/01 16:08:13;;;;;;;0.00;0.00;;;23.10;75.70;;;;;;4935065;29;20102;-77
2023/09/01 16:10:39;;;;;;;0.00;0.00;;;23.10;76.60;;;;;;4934498;29;20035;-77
2023/09/01 16:13:05;;;;;;;0.00;0.00;;;23.30;77.10;;;;;;4935180;29;20471;-77
2023/09/01 16:15:30;;;;;;;0.00;0.00;;;23.30;78.70;;;;;;4934231;29;20487;-77
2023/09/01 16:17:56;;;;;;;0.00;0.00;;;23.20;79.80;;;;;;4934477;29;21591;-77
2023/09/01 16:20:24;;;;;;;0.00;0.00;;;23.30;79.30;;;;;;4932914;29;20052;-77
2023/09/01 16:22:50;;;;;;;0.00;0.00;;;23.40;79.30;;;;;;4934051;29;20034;-77
2023/09/01 16:25:17;;;;;;;0.00;0.00;;;23.30;80.10;;;;;;4936115;29;20035;-79
2023/09/01 16:27:44;;;;;;;0.00;0.00;;;23.30;80.10;;;;;;4934570;29;20023;-77
2023/09/01 16:30:13;;;;;;;0.00;0.00;;;23.30;80.60;;;;;;4934104;29;20019;-80
2023/09/01 16:32:39;;;;;;;0.00;0.00;;;23.20;81.30;;;;;;4936552;29;20036;-76
2023/09/01 16:35:15;;;;;;;0.10;0.10;;;23.20;81.10;;;;;;4937463;29;20102;-76
2023/09/01 16:37:41;;;;;;;0.00;0.00;;;23.20;81.20;;;;;;4937023;29;20024;-80
2023/09/01 16:40:08;;;;;;;0.00;0.00;;;23.20;80.90;;;;;;4936827;29;20063;-76
2023/09/01 16:42:35;;;;;;;0.00;0.00;;;23.20;81.20;;;;;;4935113;29;20042;-77
2023/09/01 16:45:01;;;;;;;0.00;0.00;;;23.20;81.00;;;;;;4937114;29;20028;-77
2023/09/01 16:47:27;;;;;;;0.00;0.00;;;23.00;81.10;;;;;;4937085;29;20518;-76
2023/09/01 16:49:52;;;;;;;0.00;0.00;;;22.90;81.20;;;;;;4936399;29;20478;-77
2023/09/01 16:52:19;;;;;;;0.00;0.00;;;22.80;81.20;;;;;;4932101;29;20035;-77
2023/09/01 16:54:44;;;;;;;0.00;0.00;;;22.80;81.40;;;;;;4936985;29;20405;-77
2023/09/01 16:57:10;;;;;;;0.00;0.00;;;22.80;81.40;;;;;;4938027;29;20027;-78
2023/09/01 16:59:35;;;;;;;0.00;0.00;;;22.70;81.40;;;;;;4939305;29;20089;-79
2023/09/01 17:02:01;;;;;;;0.00;0.00;;;22.60;81.50;;;;;;4939921;29;20103;-78
2023/09/01 17:04:29;;;;;;;0.00;0.00;;;22.60;81.60;;;;;;4939030;29;20126;-77
2023/09/01 17:06:54;;;;;;;0.00;0.00;;;22.50;81.70;;;;;;4940289;29;20024;-79
2023/09/01 17:09:20;;;;;;;0.00;0.00;;;22.50;81.40;;;;;;4939457;29;20553;-78
2023/09/01 17:11:46;;;;;;;0.08;0.00;;;22.40;81.20;;;;;;4935275;29;20032;-77
2023/09/01 17:14:12;;;;;;;0.00;0.00;;;22.40;81.30;;;;;;4938475;29;20028;-78
2023/09/01 17:16:37;;;;;;;0.00;0.00;;;22.30;81.20;;;;;;4935618;29;20032;-77